createdAt,value
2018-08-31T00:02:23.766Z,18.60
2018-08-31T00:05:02.715Z,18.60
2018-08-31T00:07:42.481Z,18.60
2018-08-31T00:11:25.070Z,18.60
2018-08-31T00:13:52.673Z,18.60
2018-08-31T00:16:19.977Z,18.60
2018-08-31T00:18:47.448Z,18.50
2018-08-31T00:21:14.778Z,18.50
2018-08-31T00:23:53.786Z,18.50
2018-08-31T00:27:34.856Z,18.50
2018-08-31T00:30:13.751Z,18.50
2018-08-31T00:35:01.976Z,18.50
2018-08-31T00:37:42.489Z,18.50
2018-08-31T00:40:55.609Z,18.40
2018-08-31T00:43:49.400Z,18.40
2018-08-31T00:46:16.721Z,18.40
2018-08-31T00:48:44.068Z,18.40
2018-08-31T00:51:11.384Z,18.40
2018-08-31T00:53:38.728Z,18.40
2018-08-31T00:56:06.028Z,18.40
2018-08-31T00:58:33.353Z,18.30
2018-08-31T01:01:00.747Z,18.40
2018-08-31T01:03:28.035Z,18.40
2018-08-31T01:05:55.474Z,18.30
2018-08-31T01:08:22.858Z,18.30
2018-08-31T01:10:50.224Z,18.20
2018-08-31T01:13:17.525Z,18.30
2018-08-31T01:15:44.873Z,18.30
2018-08-31T01:18:12.268Z,18.30
2018-08-31T01:20:39.597Z,18.30
2018-08-31T01:23:07.836Z,18.30
2018-08-31T01:25:35.414Z,18.40
2018-08-31T01:28:03.276Z,18.30
2018-08-31T01:30:31.943Z,18.30
2018-08-31T01:32:59.359Z,18.30
2018-08-31T01:35:26.685Z,18.30
2018-08-31T01:37:54.062Z,18.30
2018-08-31T01:40:21.405Z,18.30
2018-08-31T01:42:48.827Z,18.30
2018-08-31T01:45:16.175Z,18.30
2018-08-31T01:47:43.550Z,18.30
2018-08-31T01:50:10.901Z,18.30
2018-08-31T01:52:38.236Z,18.30
2018-08-31T01:55:05.801Z,18.20
2018-08-31T01:57:33.219Z,18.20
2018-08-31T02:00:00.577Z,18.20
2018-08-31T02:02:27.890Z,18.20
2018-08-31T02:04:55.237Z,18.10
2018-08-31T02:07:22.534Z,18.10
2018-08-31T02:09:49.866Z,18.10
2018-08-31T02:12:17.163Z,18.10
2018-08-31T02:14:44.526Z,18.10
2018-08-31T02:17:11.883Z,18.20
2018-08-31T02:19:39.254Z,18.00
2018-08-31T02:22:06.834Z,18.00
2018-08-31T02:24:34.182Z,18.00
2018-08-31T02:27:01.668Z,18.00
2018-08-31T02:29:29.047Z,18.00
2018-08-31T02:31:56.362Z,18.00
2018-08-31T02:34:23.763Z,18.00
2018-08-31T02:36:51.301Z,18.00
2018-08-31T02:39:18.697Z,18.00
2018-08-31T02:41:46.056Z,18.00
2018-08-31T02:44:13.441Z,18.00
2018-08-31T02:46:40.816Z,17.90
2018-08-31T02:49:08.175Z,17.90
2018-08-31T02:51:35.597Z,17.90
2018-08-31T02:54:02.976Z,17.90
2018-08-31T02:56:30.413Z,17.90
2018-08-31T02:58:57.710Z,17.90
2018-08-31T03:01:25.237Z,17.90
2018-08-31T03:03:52.661Z,17.90
2018-08-31T03:06:20.084Z,17.90
2018-08-31T03:08:47.422Z,17.90
2018-08-31T03:11:14.945Z,17.90
2018-08-31T03:13:42.338Z,17.80
2018-08-31T03:16:09.772Z,17.80
2018-08-31T03:18:37.090Z,17.80
2018-08-31T03:21:04.499Z,17.80
2018-08-31T03:23:31.932Z,17.80
2018-08-31T03:25:59.261Z,17.80
2018-08-31T03:28:26.630Z,17.80
2018-08-31T03:30:54.021Z,17.70
2018-08-31T03:33:21.378Z,17.80
2018-08-31T03:35:48.755Z,17.70
2018-08-31T03:38:16.133Z,17.70
2018-08-31T03:40:43.613Z,17.80
2018-08-31T03:43:10.966Z,17.70
2018-08-31T03:45:38.461Z,17.70
2018-08-31T03:48:06.085Z,17.70
2018-08-31T03:50:33.431Z,17.70
2018-08-31T03:53:00.756Z,17.70
2018-08-31T03:55:28.146Z,17.70
2018-08-31T03:57:55.518Z,17.70
2018-08-31T04:00:22.871Z,17.70
2018-08-31T04:02:50.195Z,17.70
2018-08-31T04:05:17.615Z,17.70
2018-08-31T04:07:45.202Z,17.60
2018-08-31T04:10:12.605Z,17.60
2018-08-31T04:12:39.995Z,17.60
2018-08-31T04:15:08.328Z,17.60
2018-08-31T04:17:35.710Z,17.60
2018-08-31T04:20:03.248Z,17.60
2018-08-31T04:22:30.737Z,17.50
2018-08-31T04:24:58.194Z,17.50
2018-08-31T04:27:25.509Z,17.50
2018-08-31T04:29:52.940Z,17.50
2018-08-31T04:32:20.368Z,17.50
2018-08-31T04:34:47.809Z,17.50
2018-08-31T04:37:15.206Z,17.50
2018-08-31T04:39:42.631Z,17.40
2018-08-31T04:42:10.032Z,17.40
2018-08-31T04:44:37.433Z,17.40
2018-08-31T04:47:04.885Z,17.40
2018-08-31T04:49:32.231Z,17.50
2018-08-31T04:51:59.582Z,17.40
2018-08-31T04:54:26.983Z,17.50
2018-08-31T04:56:54.375Z,17.50
2018-08-31T04:59:21.799Z,17.50
2018-08-31T05:01:49.107Z,17.50
2018-08-31T05:04:16.697Z,17.50
2018-08-31T05:06:44.034Z,17.50
2018-08-31T05:09:11.787Z,17.50
2018-08-31T05:11:39.250Z,17.50
2018-08-31T05:14:06.609Z,17.50
2018-08-31T05:16:34.447Z,17.50
2018-08-31T05:19:02.113Z,17.50
2018-08-31T05:21:29.709Z,17.50
2018-08-31T05:23:57.103Z,17.50
2018-08-31T05:26:24.975Z,17.50
2018-08-31T05:28:52.754Z,17.50
2018-08-31T05:31:20.433Z,17.50
2018-08-31T05:33:47.825Z,17.40
2018-08-31T05:36:15.161Z,17.50
2018-08-31T05:38:42.589Z,17.40
2018-08-31T05:41:10.036Z,17.40
2018-08-31T05:43:37.503Z,17.40
2018-08-31T05:46:04.862Z,17.50
2018-08-31T05:48:32.151Z,17.40
2018-08-31T05:50:59.573Z,17.50
2018-08-31T05:53:27.058Z,17.50
2018-08-31T05:55:54.470Z,17.50
2018-08-31T05:58:21.825Z,17.50
2018-08-31T06:00:49.298Z,17.50
2018-08-31T06:03:16.620Z,17.50
2018-08-31T06:05:44.062Z,17.50
2018-08-31T06:08:11.373Z,17.50
2018-08-31T06:10:38.960Z,17.50
2018-08-31T06:13:06.531Z,17.50
2018-08-31T06:15:34.114Z,17.60
2018-08-31T06:18:01.564Z,17.50
2018-08-31T06:20:29.078Z,17.60
2018-08-31T06:22:56.406Z,17.60
2018-08-31T06:25:23.711Z,17.60
2018-08-31T06:27:51.191Z,17.60
2018-08-31T06:30:18.494Z,17.70
2018-08-31T06:32:45.951Z,17.70
2018-08-31T06:35:13.274Z,17.70
2018-08-31T06:37:40.668Z,17.70
2018-08-31T06:40:08.005Z,17.70
2018-08-31T06:42:35.493Z,17.70
2018-08-31T06:45:03.133Z,17.70
2018-08-31T06:47:30.597Z,17.70
2018-08-31T06:49:58.004Z,17.80
2018-08-31T06:52:25.399Z,17.80
2018-08-31T06:54:52.718Z,17.80
2018-08-31T06:57:20.053Z,17.80
2018-08-31T06:59:47.317Z,17.80
2018-08-31T07:02:14.737Z,17.90
2018-08-31T07:04:42.153Z,17.90
2018-08-31T07:07:09.493Z,17.90
2018-08-31T07:09:36.821Z,17.90
2018-08-31T07:12:04.519Z,17.90
2018-08-31T07:14:31.840Z,17.90
2018-08-31T07:16:59.146Z,17.90
2018-08-31T07:19:26.646Z,18.00
2018-08-31T07:21:53.921Z,18.00
2018-08-31T07:24:21.321Z,18.00
2018-08-31T07:26:48.778Z,18.00
2018-08-31T07:29:16.149Z,18.00
2018-08-31T07:31:43.708Z,18.00
2018-08-31T07:34:11.021Z,18.00
2018-08-31T07:36:38.399Z,18.10
2018-08-31T07:39:07.631Z,18.10
2018-08-31T07:41:35.001Z,18.10
2018-08-31T07:44:02.409Z,18.10
2018-08-31T07:46:30.215Z,18.10
2018-08-31T07:48:57.617Z,18.10
2018-08-31T07:51:24.989Z,18.10
2018-08-31T07:53:52.477Z,18.10
2018-08-31T07:56:19.774Z,18.20
2018-08-31T07:58:47.282Z,18.20
2018-08-31T08:01:14.805Z,18.20
2018-08-31T08:03:42.199Z,18.30
2018-08-31T08:06:09.541Z,18.30
2018-08-31T08:08:36.970Z,18.30
2018-08-31T08:11:04.405Z,18.30
2018-08-31T08:13:31.835Z,18.30
2018-08-31T08:15:59.250Z,18.30
2018-08-31T08:18:26.636Z,18.30
2018-08-31T08:20:54.177Z,18.30
2018-08-31T08:23:21.522Z,18.30
2018-08-31T08:25:48.939Z,18.40
2018-08-31T08:28:16.343Z,18.40
2018-08-31T08:30:43.782Z,18.40
2018-08-31T08:33:11.108Z,18.40
2018-08-31T08:35:38.470Z,18.40
2018-08-31T08:38:06.118Z,18.40
2018-08-31T08:40:33.478Z,18.50
2018-08-31T08:43:00.965Z,18.50
2018-08-31T08:45:28.435Z,18.50
2018-08-31T08:47:55.782Z,18.50
2018-08-31T08:50:23.179Z,18.60
2018-08-31T08:52:50.626Z,18.60
2018-08-31T08:55:18.037Z,18.60
2018-08-31T08:57:45.382Z,18.50
2018-08-31T09:00:12.808Z,18.50
2018-08-31T09:02:40.102Z,18.50
2018-08-31T09:05:07.506Z,18.50
2018-08-31T09:07:34.962Z,18.60
2018-08-31T09:10:02.329Z,18.50
2018-08-31T09:12:29.802Z,18.50
2018-08-31T09:14:57.091Z,18.60
2018-08-31T09:17:24.513Z,18.60
2018-08-31T09:19:51.882Z,18.60
2018-08-31T09:22:19.321Z,18.60
2018-08-31T09:24:46.756Z,18.70
2018-08-31T09:27:14.126Z,18.70
2018-08-31T09:29:41.617Z,18.70
2018-08-31T09:32:14.690Z,18.70
2018-08-31T09:34:47.809Z,18.70
2018-08-31T09:37:17.464Z,18.80
2018-08-31T09:39:44.955Z,18.80
2018-08-31T09:42:12.555Z,18.80
2018-08-31T09:44:39.883Z,18.80
2018-08-31T09:47:07.328Z,18.80
2018-08-31T09:49:34.919Z,18.80
2018-08-31T09:52:02.351Z,18.80
2018-08-31T09:54:30.148Z,18.80
2018-08-31T09:56:57.729Z,18.90
2018-08-31T09:59:25.113Z,18.90
2018-08-31T10:01:55.267Z,19.00
2018-08-31T10:04:22.574Z,19.00
2018-08-31T10:06:49.935Z,19.00
2018-08-31T10:09:17.403Z,19.00
2018-08-31T10:11:44.786Z,19.00
2018-08-31T10:14:12.259Z,19.10
2018-08-31T10:16:39.590Z,19.00
2018-08-31T10:19:06.978Z,19.10
2018-08-31T10:21:34.493Z,19.00
2018-08-31T10:24:01.914Z,19.10
2018-08-31T10:26:29.274Z,19.10
2018-08-31T10:28:56.621Z,19.10
2018-08-31T10:31:23.969Z,19.10
2018-08-31T10:33:51.295Z,19.10
2018-08-31T10:36:18.713Z,19.10
2018-08-31T10:38:46.105Z,19.10
2018-08-31T10:41:13.432Z,19.10
2018-08-31T10:43:41.149Z,19.10
2018-08-31T10:46:08.661Z,19.10
2018-08-31T10:48:36.163Z,19.10
2018-08-31T10:51:03.879Z,19.10
2018-08-31T10:53:31.363Z,19.10
2018-08-31T10:55:58.949Z,19.20
2018-08-31T10:58:26.455Z,19.20
2018-08-31T11:00:53.998Z,19.30
2018-08-31T11:03:21.709Z,19.20
2018-08-31T11:05:49.074Z,19.30
2018-08-31T11:08:16.823Z,19.30
2018-08-31T11:10:44.371Z,19.60
2018-08-31T11:13:11.732Z,19.30
2018-08-31T11:15:39.497Z,19.40
2018-08-31T11:18:06.931Z,19.40
2018-08-31T11:20:34.468Z,19.40
2018-08-31T11:23:01.929Z,19.50
2018-08-31T11:25:29.598Z,19.50
2018-08-31T11:27:57.391Z,19.50
2018-08-31T11:30:24.807Z,19.50
2018-08-31T11:32:52.629Z,19.60
2018-08-31T11:35:20.020Z,19.60
2018-08-31T11:37:47.446Z,19.60
2018-08-31T11:40:15.073Z,19.60
2018-08-31T11:42:42.418Z,19.60
2018-08-31T11:45:10.190Z,19.60
2018-08-31T11:47:37.721Z,19.60
2018-08-31T11:50:05.939Z,19.60
2018-08-31T11:52:33.388Z,19.60
2018-08-31T11:55:00.789Z,19.60
2018-08-31T11:57:28.347Z,19.60
2018-08-31T11:59:56.134Z,19.60
2018-08-31T12:02:23.462Z,19.70
2018-08-31T12:04:51.013Z,19.70
2018-08-31T12:07:18.327Z,19.70
2018-08-31T12:09:45.683Z,19.70
2018-08-31T12:12:13.411Z,19.70
2018-08-31T12:14:40.767Z,19.70
2018-08-31T12:17:08.413Z,19.70
2018-08-31T12:19:36.274Z,19.80
2018-08-31T12:22:03.995Z,19.80
2018-08-31T12:24:31.841Z,19.80
2018-08-31T12:26:59.221Z,19.80
2018-08-31T12:29:26.630Z,19.90
2018-08-31T12:31:54.062Z,19.90
2018-08-31T12:34:21.393Z,20.00
2018-08-31T12:36:48.790Z,20.00
2018-08-31T12:39:16.231Z,20.10
2018-08-31T12:41:43.666Z,20.10
2018-08-31T12:44:11.173Z,20.20
2018-08-31T12:46:38.561Z,20.20
2018-08-31T12:49:06.022Z,20.20
2018-08-31T12:51:33.408Z,20.30
2018-08-31T12:54:00.810Z,20.30
2018-08-31T12:56:28.526Z,20.30
2018-08-31T12:58:55.942Z,20.40
2018-08-31T13:01:23.392Z,20.50
2018-08-31T13:03:50.721Z,20.60
2018-08-31T13:06:18.017Z,20.60
2018-08-31T13:08:45.458Z,20.70
2018-08-31T13:11:12.917Z,20.70
2018-08-31T13:13:40.223Z,20.70
2018-08-31T13:16:07.582Z,20.80
2018-08-31T13:18:34.941Z,20.80
2018-08-31T13:21:02.544Z,20.80
2018-08-31T13:23:30.029Z,20.90
2018-08-31T13:25:57.797Z,20.90
2018-08-31T13:28:25.285Z,20.90
2018-08-31T13:30:52.702Z,20.90
2018-08-31T13:33:19.991Z,20.90
2018-08-31T13:35:47.417Z,21.00
2018-08-31T13:38:14.847Z,21.00
2018-08-31T13:40:42.225Z,21.00
2018-08-31T13:43:09.723Z,21.00
2018-08-31T13:45:37.139Z,21.00
2018-08-31T13:48:04.640Z,21.10
2018-08-31T13:50:32.073Z,21.10
2018-08-31T13:52:59.604Z,21.10
2018-08-31T13:55:26.984Z,21.10
2018-08-31T13:57:54.314Z,21.10
2018-08-31T14:00:21.984Z,21.10
2018-08-31T14:02:49.565Z,21.10
2018-08-31T14:05:17.030Z,21.20
2018-08-31T14:07:44.482Z,21.20
2018-08-31T14:10:11.927Z,21.20
2018-08-31T14:12:39.425Z,21.30
2018-08-31T14:15:06.897Z,21.30
2018-08-31T14:17:34.413Z,21.40
2018-08-31T14:20:01.792Z,21.40
2018-08-31T14:22:29.306Z,21.50
2018-08-31T14:24:56.613Z,21.50
2018-08-31T14:27:24.112Z,21.50
2018-08-31T14:29:51.749Z,21.50
2018-08-31T14:32:19.049Z,21.50
2018-08-31T14:34:46.407Z,21.50
2018-08-31T14:37:13.882Z,21.40
2018-08-31T14:39:41.289Z,21.40
2018-08-31T14:42:08.727Z,21.40
2018-08-31T14:44:36.117Z,21.40
2018-08-31T14:47:03.450Z,21.30
2018-08-31T14:49:30.995Z,21.30
2018-08-31T14:51:58.283Z,21.30
2018-08-31T14:54:25.681Z,21.30
2018-08-31T14:56:53.053Z,21.30
2018-08-31T14:59:20.489Z,21.30
2018-08-31T15:01:47.861Z,21.30
2018-08-31T15:04:15.306Z,21.30
2018-08-31T15:06:42.654Z,21.30
2018-08-31T15:09:10.255Z,21.30
2018-08-31T15:11:37.604Z,21.30
2018-08-31T15:14:05.230Z,21.30
2018-08-31T15:16:32.622Z,21.30
2018-08-31T15:19:00.150Z,21.30
2018-08-31T15:21:27.506Z,21.30
2018-08-31T15:23:54.931Z,21.40
2018-08-31T15:26:22.299Z,21.40
2018-08-31T15:28:49.910Z,21.40
2018-08-31T15:31:17.652Z,21.40
2018-08-31T15:33:44.992Z,21.50
2018-08-31T15:36:12.490Z,21.50
2018-08-31T15:38:40.078Z,21.50
2018-08-31T15:41:07.453Z,21.50
2018-08-31T15:43:35.055Z,21.50
2018-08-31T15:46:02.410Z,21.50
2018-08-31T15:48:29.902Z,21.40
2018-08-31T15:50:57.292Z,21.40
2018-08-31T15:53:24.865Z,21.40
2018-08-31T15:55:52.264Z,21.50
2018-08-31T15:58:19.806Z,21.50
2018-08-31T16:00:47.333Z,21.60
2018-08-31T16:03:14.786Z,21.60
2018-08-31T16:05:42.117Z,21.60
2018-08-31T16:08:09.604Z,21.70
2018-08-31T16:10:36.989Z,21.70
2018-08-31T16:13:04.410Z,21.70
2018-08-31T16:15:31.758Z,21.70
2018-08-31T16:17:59.220Z,21.80
2018-08-31T16:20:26.829Z,21.80
2018-08-31T16:22:54.350Z,21.80
2018-08-31T16:25:21.850Z,21.80
2018-08-31T16:27:49.430Z,21.80
2018-08-31T16:30:16.896Z,21.90
2018-08-31T16:32:44.274Z,21.90
2018-08-31T16:35:11.698Z,21.90
2018-08-31T16:37:39.038Z,22.00
2018-08-31T16:40:06.783Z,22.10
2018-08-31T16:42:34.309Z,22.10
2018-08-31T16:45:01.945Z,22.20
2018-08-31T16:47:29.506Z,22.20
2018-08-31T16:49:56.982Z,22.20
2018-08-31T16:52:24.376Z,22.20
2018-08-31T16:54:51.786Z,22.30
2018-08-31T16:57:19.387Z,22.30
2018-08-31T16:59:46.898Z,22.40
2018-08-31T17:02:14.378Z,22.40
2018-08-31T17:04:41.807Z,22.40
2018-08-31T17:07:09.186Z,22.40
2018-08-31T17:09:36.707Z,22.30
2018-08-31T17:12:04.315Z,22.30
2018-08-31T17:14:32.257Z,22.20
2018-08-31T17:17:00.096Z,22.20
2018-08-31T17:19:27.376Z,22.20
2018-08-31T17:21:54.779Z,22.10
2018-08-31T17:24:22.253Z,22.00
2018-08-31T17:26:55.402Z,21.90
2018-08-31T17:29:28.730Z,21.90
2018-08-31T17:32:02.014Z,21.80
2018-08-31T17:34:35.150Z,21.70
2018-08-31T17:37:08.361Z,21.70
2018-08-31T17:39:35.715Z,21.60
2018-08-31T17:42:03.414Z,21.50
2018-08-31T17:44:30.720Z,21.50
2018-08-31T17:46:58.182Z,21.40
2018-08-31T17:49:25.925Z,21.40
2018-08-31T17:51:53.276Z,21.30
2018-08-31T17:54:20.646Z,21.30
2018-08-31T17:56:48.070Z,21.50
2018-08-31T17:59:15.412Z,21.20
2018-08-31T18:01:42.845Z,21.10
2018-08-31T18:04:10.340Z,21.10
2018-08-31T18:06:37.829Z,21.00
2018-08-31T18:09:06.053Z,21.00
2018-08-31T18:11:33.522Z,21.00
2018-08-31T18:14:00.959Z,20.90
2018-08-31T18:16:28.374Z,20.90
2018-08-31T18:18:55.661Z,20.90
2018-08-31T18:21:23.282Z,20.90
2018-08-31T18:23:50.692Z,20.90
2018-08-31T18:26:18.055Z,20.80
2018-08-31T18:28:45.411Z,20.90
2018-08-31T18:31:12.731Z,20.80
2018-08-31T18:33:40.220Z,20.80
2018-08-31T18:36:07.550Z,20.80
2018-08-31T18:38:34.845Z,20.70
2018-08-31T18:41:02.323Z,20.70
2018-08-31T18:43:29.598Z,20.70
2018-08-31T18:45:57.058Z,20.70
2018-08-31T18:48:24.427Z,20.60
2018-08-31T18:50:51.863Z,20.60
2018-08-31T18:53:19.205Z,20.60
2018-08-31T18:55:46.562Z,20.60
2018-08-31T18:58:13.919Z,20.60
2018-08-31T19:00:41.343Z,20.50
2018-08-31T19:03:12.349Z,20.50
2018-08-31T19:05:39.808Z,20.50
2018-08-31T19:08:07.274Z,20.50
2018-08-31T19:10:34.700Z,20.50
2018-08-31T19:13:02.271Z,20.50
2018-08-31T19:15:29.763Z,20.50
2018-08-31T19:17:57.459Z,20.50
2018-08-31T19:20:25.141Z,20.40
2018-08-31T19:22:52.730Z,20.40
2018-08-31T19:25:20.108Z,20.40
2018-08-31T19:27:47.581Z,20.40
2018-08-31T19:30:14.965Z,20.40
2018-08-31T19:32:42.405Z,20.40
2018-08-31T19:35:09.859Z,20.40
2018-08-31T19:37:37.246Z,20.30
2018-08-31T19:40:05.113Z,20.30
2018-08-31T19:42:32.679Z,20.30
2018-08-31T19:45:00.155Z,20.30
2018-08-31T19:47:27.519Z,20.30
2018-08-31T19:49:55.098Z,20.30
2018-08-31T19:52:22.458Z,20.30
2018-08-31T19:54:49.956Z,20.30
2018-08-31T19:57:17.559Z,20.20
2018-08-31T19:59:44.990Z,20.50
2018-08-31T20:02:12.566Z,20.20
2018-08-31T20:04:40.206Z,20.20
2018-08-31T20:07:07.988Z,20.20
2018-08-31T20:09:35.290Z,20.10
2018-08-31T20:12:02.874Z,20.10
2018-08-31T20:14:30.614Z,20.10
2018-08-31T20:16:58.011Z,20.10
2018-08-31T20:19:25.311Z,20.10
2018-08-31T20:21:52.730Z,20.10
2018-08-31T20:24:20.197Z,20.10
2018-08-31T20:26:47.500Z,20.10
2018-08-31T20:29:14.924Z,20.10
2018-08-31T20:31:42.467Z,20.00
2018-08-31T20:34:09.754Z,20.00
2018-08-31T20:36:37.285Z,20.00
2018-08-31T20:39:07.147Z,20.00
2018-08-31T20:41:34.496Z,19.90
2018-08-31T20:44:01.848Z,19.90
2018-08-31T20:46:29.231Z,19.90
2018-08-31T20:48:56.580Z,19.90
2018-08-31T20:51:23.924Z,19.90
2018-08-31T20:53:51.278Z,19.90
2018-08-31T20:56:18.749Z,19.80
2018-08-31T20:58:46.161Z,19.80
2018-08-31T21:01:13.521Z,19.80
2018-08-31T21:03:41.050Z,19.80
2018-08-31T21:06:08.452Z,19.80
2018-08-31T21:08:35.797Z,19.80
2018-08-31T21:11:03.293Z,19.80
2018-08-31T21:13:30.757Z,19.80
2018-08-31T21:15:58.097Z,19.70
2018-08-31T21:18:25.498Z,19.70
2018-08-31T21:20:52.858Z,19.70
2018-08-31T21:23:20.278Z,19.70
2018-08-31T21:25:47.750Z,19.70
2018-08-31T21:28:15.105Z,19.60
2018-08-31T21:30:42.557Z,19.60
2018-08-31T21:33:10.080Z,19.70
2018-08-31T21:35:37.374Z,19.60
2018-08-31T21:38:05.042Z,19.60
2018-08-31T21:40:32.332Z,19.60
2018-08-31T21:42:59.697Z,19.60
2018-08-31T21:45:27.258Z,19.60
2018-08-31T21:47:54.627Z,19.60
2018-08-31T21:50:21.966Z,19.50
2018-08-31T21:52:49.259Z,19.50
2018-08-31T21:55:16.708Z,19.50
2018-08-31T21:57:44.040Z,19.50
2018-08-31T22:00:13.785Z,19.40
2018-08-31T22:02:41.210Z,19.50
2018-08-31T22:05:08.585Z,19.40
2018-08-31T22:07:35.956Z,19.40
2018-08-31T22:10:03.508Z,19.40
2018-08-31T22:12:31.172Z,19.40
2018-08-31T22:14:58.622Z,19.30
2018-08-31T22:17:26.282Z,19.30
2018-08-31T22:19:53.679Z,19.30
2018-08-31T22:22:21.130Z,19.30
2018-08-31T22:24:48.684Z,19.20
2018-08-31T22:27:16.023Z,18.90
2018-08-31T22:29:43.382Z,19.20
2018-08-31T22:32:10.662Z,19.20
2018-08-31T22:34:38.206Z,19.10
2018-08-31T22:37:05.602Z,19.10
2018-08-31T22:39:32.971Z,19.10
2018-08-31T22:42:00.287Z,19.00
2018-08-31T22:44:27.936Z,19.00
2018-08-31T22:46:56.386Z,19.00
2018-08-31T22:49:23.718Z,19.00
2018-08-31T22:51:50.996Z,18.90
2018-08-31T22:54:18.310Z,18.90
2018-08-31T22:56:45.680Z,18.90
2018-08-31T22:59:13.060Z,18.90
2018-08-31T23:01:40.682Z,18.80
2018-08-31T23:04:08.183Z,18.80
2018-08-31T23:06:35.559Z,18.80
2018-08-31T23:09:03.170Z,18.80
2018-08-31T23:11:30.526Z,18.70
2018-08-31T23:13:57.918Z,18.70
2018-08-31T23:16:25.250Z,18.70
2018-08-31T23:18:52.674Z,18.70
2018-08-31T23:21:20.002Z,18.60
2018-08-31T23:23:47.838Z,18.60
2018-08-31T23:26:15.711Z,18.60
2018-08-31T23:28:43.177Z,18.50
2018-08-31T23:31:10.555Z,18.50
2018-08-31T23:33:37.815Z,18.50
2018-08-31T23:36:05.180Z,18.80
2018-08-31T23:38:32.565Z,18.40
2018-08-31T23:40:59.975Z,18.40
2018-08-31T23:43:27.314Z,18.40
2018-08-31T23:45:54.742Z,18.40
2018-08-31T23:48:22.157Z,18.30
2018-08-31T23:50:49.472Z,18.40
2018-08-31T23:53:16.797Z,18.40
2018-08-31T23:55:44.289Z,18.30
2018-08-31T23:58:11.648Z,18.30
